If you wish to contribute or participate in the discussions about articles you are invited to join SKYbrary as a registered user

 Actions

Córdoba Airport

From SKYbrary Wiki

LEBA
Airport
ICAO: LEBA – IATA: ODB
Summary
Name Córdoba Airport
Region Europe
Territory Spain ES.gif
Location Fontanar de Quintos, Andalucia
Serving Cordoba
Elevation 90.526 m <br />297 ft <br />297 ft90.526 m <br />
Type medium airport
Coordinates 37° 50' 31.22" N, 4° 50' 55.96" W
Runways
Designator Length Width Surface ROPS
3/21 1380 m4,527.559 ft <br /> 45 m147.638 ft <br /> ASP /


METAR
Observation LEBA 121500Z 25006KT CAVOK 34/11 Q1013
Station Cordoba / Aeropuerto
Date/Time 12 June 2021 15:00:00
Wind direction 250°
Wind speed 06 kts
Lowest cloud amount clouds and visibility OK
Temperature 34°C
Dew point 11°C
Humidity 24%
QNH 1013 hPa
Weather condition n/a

Climatology

Warm mediterranean climate (Köppen climate classification Csa).

Maps

Terrain

Loading map...

Airport Layout

Loading map...


Accidents & Serious Incidents at or in vicinity of LEBA

None on SKYbrary